首页
METAR-TAF:

METAR-TAF

机场 :

North Las Vegas Airport

北拉斯維加斯, 内华达州, 美国

纬度: 36-12-42N, 经度: 115-11-45W, 海拔: 672米

当前天气观测

该预报发布于25分钟前的11:53 UTC
风速4节,风向西北
温度 21°C
湿度 25%
气压 1013 hPa
能見度: 16.1公里
天空无云

METAR: KVGT 271153Z AUTO 31004KT 10SM CLR 21/00 A2991 RMK AO2 SLP123 T02110000 10283 20211 53006

时间: 05:18 (12:18 UTC)

预报

该预报发布于58分钟前的11:20 UTC
预报有效从27日的 12点(UTC)到 28日的 12点(UTC)
风速6节,风向多变
能見度: 10公里
天空无云
从 27日的 1600点(UTC)
风速7节,风向
能見度: 10公里
天空无云
从 27日的 2100点(UTC)
风速8节,风向东南
能見度: 10公里
少量云层高于12000英尺
从 28日的 0400点(UTC)
风速7节,风向西
能見度: 10公里
天空无云

TAF: KVGT 271120Z 2712/2812 VRB06KT P6SM SKC FM271600 10007KT P6SM SKC FM272100 14008KT P6SM FEW120 FM280400 26007KT P6SM SKC

超过4000个机场的气象观测和天气预报(METAR&TAF报告)。

可查询的气象台以黄色和红色小点在地图上表示。

将鼠标移到小点上方,可查看气象台名称。

然后点击查看天气观测和预报。

如需切换地图:点击带黑十字的绿色按钮放大地图;点击带横线的绿色按钮缩小地图;或者点击绿色箭头查看邻近地区的地图。


METAR-TAF: